createdAt,value
2022-10-12T00:01:08.436Z,18.10
2022-10-12T00:03:36.483Z,18.47
2022-10-12T00:06:09.016Z,19.33
2022-10-12T00:08:37.033Z,20.63
2022-10-12T00:11:04.987Z,21.05
2022-10-12T00:13:32.601Z,21.03
2022-10-12T00:16:04.510Z,21.27
2022-10-12T00:18:32.359Z,20.67
2022-10-12T00:21:16.731Z,21.77
2022-10-12T00:23:44.433Z,21.93
2022-10-12T00:26:17.510Z,22.17
2022-10-12T00:28:45.767Z,21.13
2022-10-12T00:31:21.314Z,23.33
2022-10-12T00:33:48.950Z,21.20
2022-10-12T00:36:25.190Z,22.00
2022-10-12T00:38:54.112Z,21.15
2022-10-12T00:41:24.314Z,22.13
2022-10-12T00:43:57.625Z,21.17
2022-10-12T00:46:24.738Z,20.97
2022-10-12T00:48:58.150Z,20.43
2022-10-12T00:51:25.365Z,21.13
2022-10-12T00:54:02.861Z,23.03
2022-10-12T00:56:33.150Z,23.40
2022-10-12T00:59:02.623Z,21.07
2022-10-12T01:01:33.589Z,22.40
2022-10-12T01:04:01.410Z,22.52
2022-10-12T01:06:29.749Z,22.60
2022-10-12T01:08:57.321Z,22.13
2022-10-12T01:11:24.555Z,23.93
2022-10-12T01:13:51.650Z,23.13
2022-10-12T01:16:41.081Z,24.70
2022-10-12T01:19:30.012Z,24.20
2022-10-12T01:22:09.436Z,24.20
2022-10-12T01:24:50.014Z,25.03
2022-10-12T01:27:41.280Z,23.77
2022-10-12T01:30:28.292Z,22.83
2022-10-12T01:33:11.126Z,23.40
2022-10-12T01:35:43.118Z,26.33
2022-10-12T01:38:12.938Z,30.40
2022-10-12T01:40:45.085Z,31.55
2022-10-12T01:43:11.769Z,33.97
2022-10-12T01:45:38.466Z,34.90
2022-10-12T01:48:05.785Z,35.83
2022-10-12T01:50:48.131Z,35.53
2022-10-12T01:53:42.397Z,34.77
2022-10-12T01:56:23.190Z,31.43
2022-10-12T01:59:12.805Z,32.87
2022-10-12T02:01:46.762Z,29.73
2022-10-12T02:04:31.790Z,31.60
2022-10-12T02:07:05.395Z,30.50
2022-10-12T02:09:36.265Z,31.53
2022-10-12T02:12:15.692Z,32.60
2022-10-12T02:14:46.879Z,32.92
2022-10-12T02:17:17.039Z,30.50
2022-10-12T02:19:52.838Z,34.30
2022-10-12T02:22:20.114Z,33.07
2022-10-12T02:24:50.078Z,33.27
2022-10-12T02:27:20.178Z,32.87
2022-10-12T02:29:48.305Z,33.20
2022-10-12T02:32:27.025Z,33.23
2022-10-12T02:35:02.196Z,30.60
2022-10-12T02:37:41.074Z,30.02
2022-10-12T02:40:21.695Z,30.00
2022-10-12T02:43:09.761Z,29.30
2022-10-12T02:45:43.609Z,28.87
2022-10-12T02:48:13.937Z,29.20
2022-10-12T02:50:40.883Z,31.37
2022-10-12T02:53:08.206Z,31.93
2022-10-12T02:55:38.990Z,31.07
2022-10-12T02:58:05.649Z,32.93
2022-10-12T03:00:34.384Z,31.03
2022-10-12T03:03:01.335Z,31.45
2022-10-12T03:05:28.047Z,30.93
2022-10-12T03:07:54.719Z,31.60
2022-10-12T03:10:21.373Z,31.13
2022-10-12T03:12:50.345Z,31.58
2022-10-12T03:15:17.482Z,32.72
2022-10-12T03:17:44.205Z,32.50
2022-10-12T03:20:11.315Z,33.67
2022-10-12T03:22:37.999Z,32.53
2022-10-12T03:25:05.054Z,31.57
2022-10-12T03:27:32.657Z,31.67
2022-10-12T03:29:59.356Z,32.07
2022-10-12T03:32:26.087Z,32.00
2022-10-12T03:34:52.823Z,30.55
2022-10-12T03:37:19.486Z,32.35
2022-10-12T03:39:46.298Z,31.60
2022-10-12T03:42:14.107Z,32.67
2022-10-12T03:44:40.887Z,32.37
2022-10-12T03:47:07.590Z,32.70
2022-10-12T03:49:34.279Z,31.58
2022-10-12T03:52:01.254Z,31.90
2022-10-12T03:54:27.958Z,32.13
2022-10-12T03:56:54.676Z,32.33
2022-10-12T03:59:21.435Z,31.63
2022-10-12T04:01:48.206Z,30.67
2022-10-12T04:04:15.326Z,32.10
2022-10-12T04:06:42.274Z,30.45
2022-10-12T04:09:09.227Z,29.53
2022-10-12T04:11:35.944Z,29.50
2022-10-12T04:14:03.059Z,31.60
2022-10-12T04:16:31.171Z,30.07
2022-10-12T04:18:58.166Z,29.27
2022-10-12T04:21:26.094Z,29.17
2022-10-12T04:23:52.855Z,29.70
2022-10-12T04:26:19.602Z,29.37
2022-10-12T04:28:46.717Z,29.35
2022-10-12T04:31:13.557Z,29.87
2022-10-12T04:33:40.258Z,27.00
2022-10-12T04:36:07.698Z,29.10
2022-10-12T04:38:34.618Z,29.00
2022-10-12T04:41:01.762Z,28.83
2022-10-12T04:43:28.450Z,30.52
2022-10-12T04:45:59.813Z,27.70
2022-10-12T04:48:27.058Z,27.00
2022-10-12T04:50:53.906Z,27.07
2022-10-12T04:53:20.777Z,28.53
2022-10-12T04:55:48.477Z,28.63
2022-10-12T04:58:15.194Z,27.30
2022-10-12T05:00:41.934Z,28.33
2022-10-12T05:03:08.709Z,26.33
2022-10-12T05:05:36.348Z,27.10
2022-10-12T05:08:04.964Z,26.37
2022-10-12T05:10:32.037Z,27.20
2022-10-12T05:12:58.885Z,26.60
2022-10-12T05:15:25.813Z,25.50
2022-10-12T05:17:52.519Z,25.02
2022-10-12T05:20:19.763Z,27.60
2022-10-12T05:22:46.494Z,26.50
2022-10-12T05:25:13.757Z,26.88
2022-10-12T05:27:40.798Z,26.67
2022-10-12T05:30:08.184Z,26.33
2022-10-12T05:32:35.156Z,26.53
2022-10-12T05:35:02.197Z,27.80
2022-10-12T05:37:29.089Z,27.88
2022-10-12T05:39:55.772Z,26.73
2022-10-12T05:42:22.476Z,27.88
2022-10-12T05:44:49.173Z,28.55
2022-10-12T05:47:16.115Z,27.97
2022-10-12T05:49:42.822Z,27.57
2022-10-12T05:52:09.484Z,28.00
2022-10-12T05:54:36.244Z,27.07
2022-10-12T05:57:04.094Z,26.47
2022-10-12T05:59:31.081Z,26.33
2022-10-12T06:01:57.815Z,27.33
2022-10-12T06:04:24.649Z,25.47
2022-10-12T06:06:51.354Z,26.25
2022-10-12T06:09:19.111Z,27.55
2022-10-12T06:11:46.103Z,27.97
2022-10-12T06:14:12.888Z,26.67
2022-10-12T06:16:39.644Z,27.67
2022-10-12T06:19:06.377Z,26.67
2022-10-12T06:21:34.207Z,29.60
2022-10-12T06:24:02.083Z,28.33
2022-10-12T06:26:29.408Z,28.42
2022-10-12T06:28:56.319Z,26.45
2022-10-12T06:31:23.366Z,26.33
2022-10-12T06:33:51.105Z,26.63
2022-10-12T06:36:18.045Z,25.60
2022-10-12T06:38:44.704Z,25.50
2022-10-12T06:41:11.559Z,26.23
2022-10-12T06:43:38.294Z,25.90
2022-10-12T06:46:05.697Z,25.30
2022-10-12T06:48:32.844Z,25.42
2022-10-12T06:50:59.637Z,26.13
2022-10-12T06:53:28.928Z,25.50
2022-10-12T06:55:55.669Z,26.65
2022-10-12T06:58:22.434Z,26.33
2022-10-12T07:00:49.834Z,25.75
2022-10-12T07:03:18.101Z,27.40
2022-10-12T07:05:44.789Z,26.30
2022-10-12T07:08:11.473Z,26.10
2022-10-12T07:10:38.228Z,26.30
2022-10-12T07:13:06.054Z,26.27
2022-10-12T07:15:33.924Z,25.35
2022-10-12T07:18:00.775Z,25.50
2022-10-12T07:20:27.451Z,25.70
2022-10-12T07:22:54.206Z,24.10
2022-10-12T07:25:22.438Z,23.98
2022-10-12T07:27:50.119Z,24.63
2022-10-12T07:30:17.398Z,26.33
2022-10-12T07:32:46.213Z,25.52
2022-10-12T07:35:12.941Z,24.15
2022-10-12T07:37:39.848Z,24.77
2022-10-12T07:40:07.611Z,25.67
2022-10-12T07:42:35.388Z,24.08
2022-10-12T07:45:02.282Z,25.63
2022-10-12T07:47:28.924Z,24.40
2022-10-12T07:49:55.655Z,24.40
2022-10-12T07:52:22.442Z,23.17
2022-10-12T07:54:50.307Z,24.67
2022-10-12T07:57:17.361Z,22.95
2022-10-12T07:59:44.138Z,21.73
2022-10-12T08:02:14.103Z,20.80
2022-10-12T08:04:40.900Z,20.90
2022-10-12T08:07:07.754Z,20.73
2022-10-12T08:09:36.532Z,20.73
2022-10-12T08:12:05.705Z,20.85
2022-10-12T08:14:33.039Z,20.55
2022-10-12T08:16:59.747Z,20.55
2022-10-12T08:19:26.442Z,20.98
2022-10-12T08:21:53.161Z,20.35
2022-10-12T08:24:20.695Z,20.30
2022-10-12T08:26:47.669Z,20.08
2022-10-12T08:29:14.457Z,18.80
2022-10-12T08:31:41.314Z,16.95
2022-10-12T08:34:08.266Z,17.83
2022-10-12T08:36:35.805Z,16.90
2022-10-12T08:39:02.935Z,17.50
2022-10-12T08:41:54.049Z,17.48
2022-10-12T08:44:33.138Z,16.55
2022-10-12T08:47:10.702Z,17.08
2022-10-12T08:49:40.251Z,16.40
2022-10-12T08:52:25.448Z,15.70
2022-10-12T08:54:53.513Z,16.83
2022-10-12T08:57:20.970Z,14.95
2022-10-12T08:59:48.253Z,15.55
2022-10-12T09:02:40.752Z,14.63
2022-10-12T09:05:10.974Z,14.90
2022-10-12T09:07:57.418Z,15.68
2022-10-12T09:10:44.375Z,14.88
2022-10-12T09:13:34.392Z,15.25
2022-10-12T09:16:21.334Z,14.27
2022-10-12T09:18:57.787Z,13.55
2022-10-12T09:21:27.666Z,14.15
2022-10-12T09:23:56.598Z,13.02
2022-10-12T09:26:38.128Z,13.73
2022-10-12T09:29:26.662Z,13.55
2022-10-12T09:32:27.481Z,13.75
2022-10-12T09:34:55.386Z,12.30
2022-10-12T09:37:25.312Z,12.23
2022-10-12T09:39:52.798Z,13.20
2022-10-12T09:42:20.028Z,12.85
2022-10-12T09:44:49.317Z,12.40
2022-10-12T09:47:40.690Z,12.27
2022-10-12T09:50:08.583Z,12.73
2022-10-12T09:52:45.046Z,11.07
2022-10-12T09:55:24.159Z,9.77
2022-10-12T09:58:00.270Z,10.25
2022-10-12T10:00:33.495Z,9.13
2022-10-12T10:03:02.043Z,10.07
2022-10-12T10:05:37.875Z,9.63
2022-10-12T10:08:23.081Z,9.98
2022-10-12T10:10:57.886Z,9.35
2022-10-12T10:13:28.969Z,8.85
2022-10-12T10:16:07.977Z,8.75
2022-10-12T10:18:43.312Z,8.63
2022-10-12T10:21:13.019Z,7.93
2022-10-12T10:23:49.508Z,9.20
2022-10-12T10:29:09.818Z,10.20
2022-10-12T10:31:37.272Z,9.40
2022-10-12T10:34:25.517Z,8.82
2022-10-12T10:36:56.401Z,8.65
2022-10-12T10:39:51.930Z,8.38
2022-10-12T10:42:22.220Z,8.27
2022-10-12T10:45:08.885Z,8.55
2022-10-12T10:47:46.359Z,8.75
2022-10-12T10:50:43.609Z,8.93
2022-10-12T10:53:25.238Z,9.38
2022-10-12T10:56:17.830Z,8.52
2022-10-12T10:58:48.710Z,8.75
2022-10-12T11:01:18.736Z,9.25
2022-10-12T11:03:55.070Z,9.65
2022-10-12T11:06:27.979Z,9.38
2022-10-12T11:09:19.878Z,9.77
2022-10-12T11:12:03.102Z,9.57
2022-10-12T11:14:38.633Z,9.00
2022-10-12T11:17:29.507Z,8.52
2022-10-12T11:20:17.101Z,9.40
2022-10-12T11:22:57.688Z,10.10
2022-10-12T11:25:30.419Z,10.48
2022-10-12T11:27:57.553Z,12.40
2022-10-12T11:30:28.609Z,9.93
2022-10-12T11:32:59.848Z,9.48
2022-10-12T11:35:30.198Z,9.48
2022-10-12T11:38:24.120Z,11.35
2022-10-12T11:41:13.907Z,10.35
2022-10-12T11:43:48.056Z,9.27
2022-10-12T11:46:19.375Z,11.80
2022-10-12T11:48:59.660Z,11.10
2022-10-12T11:51:26.345Z,11.20
2022-10-12T11:54:11.398Z,11.43
2022-10-12T11:56:43.287Z,11.95
2022-10-12T11:59:24.684Z,11.65
2022-10-12T12:02:14.863Z,12.77
2022-10-12T12:04:44.414Z,12.35
2022-10-12T12:07:38.126Z,12.88
2022-10-12T12:10:23.515Z,12.68
2022-10-12T12:13:15.233Z,12.68
2022-10-12T12:16:03.558Z,13.85
2022-10-12T12:19:09.118Z,14.57
2022-10-12T12:22:13.421Z,13.70
2022-10-12T12:24:50.891Z,13.05
2022-10-12T12:27:37.003Z,12.60
2022-10-12T12:30:44.770Z,12.23
2022-10-12T12:33:20.388Z,12.40
2022-10-12T12:36:09.725Z,12.55
2022-10-12T12:38:45.150Z,12.43
2022-10-12T12:41:14.887Z,12.73
2022-10-12T12:43:59.375Z,12.75
2022-10-12T12:46:54.794Z,12.75
2022-10-12T12:49:29.069Z,12.75
2022-10-12T12:51:58.046Z,10.88
2022-10-12T12:54:25.546Z,11.57
2022-10-12T12:57:10.906Z,11.65
2022-10-12T13:00:05.643Z,11.93
2022-10-12T13:02:53.416Z,11.15
2022-10-12T13:06:04.283Z,10.98
2022-10-12T13:08:53.659Z,11.43
2022-10-12T13:11:43.726Z,12.73
2022-10-12T13:14:52.405Z,11.77
2022-10-12T13:17:46.942Z,11.48
2022-10-12T13:20:27.478Z,11.20
2022-10-12T13:22:57.838Z,11.95
2022-10-12T13:25:40.305Z,12.48
2022-10-12T13:28:13.574Z,12.75
2022-10-12T13:30:47.307Z,12.13
2022-10-12T13:33:32.664Z,11.30
2022-10-12T13:36:06.136Z,11.45
2022-10-12T13:38:35.654Z,12.07
2022-10-12T13:41:17.210Z,12.07
2022-10-12T13:44:05.126Z,12.20
2022-10-12T13:46:35.218Z,11.98
2022-10-12T13:49:04.205Z,11.45
2022-10-12T13:51:31.378Z,12.45
2022-10-12T13:53:58.141Z,11.85
2022-10-12T13:56:28.158Z,11.57
2022-10-12T13:59:05.356Z,12.20
2022-10-12T14:02:00.017Z,12.88
2022-10-12T14:04:32.219Z,13.07
2022-10-12T14:07:00.612Z,13.80
2022-10-12T14:09:31.518Z,12.57
2022-10-12T14:11:58.539Z,12.30
2022-10-12T14:14:39.719Z,13.13
2022-10-12T14:17:07.495Z,12.88
2022-10-12T14:19:45.125Z,13.27
2022-10-12T14:22:19.368Z,13.48
2022-10-12T14:24:46.227Z,12.10
2022-10-12T14:27:24.622Z,13.63
2022-10-12T14:30:04.356Z,14.30
2022-10-12T14:32:40.974Z,12.80
2022-10-12T14:35:21.299Z,12.70
2022-10-12T14:37:49.752Z,13.70
2022-10-12T14:40:33.527Z,11.98
2022-10-12T14:43:09.862Z,11.73
2022-10-12T14:45:36.730Z,12.48
2022-10-12T14:48:05.040Z,13.38
2022-10-12T14:50:33.047Z,12.10
2022-10-12T14:53:04.025Z,13.40
2022-10-12T14:55:34.193Z,12.55
2022-10-12T14:58:01.312Z,12.25
2022-10-12T15:00:31.414Z,12.98
2022-10-12T15:02:58.983Z,12.63
2022-10-12T15:05:29.082Z,12.88
2022-10-12T15:07:56.622Z,12.88
2022-10-12T15:10:25.496Z,16.10
2022-10-12T15:12:53.737Z,14.25
2022-10-12T15:15:40.363Z,18.30
2022-10-12T15:18:07.384Z,21.85
2022-10-12T15:20:35.175Z,19.20
2022-10-12T15:23:03.052Z,21.95
2022-10-12T15:25:35.964Z,18.08
2022-10-12T15:28:04.815Z,15.68
2022-10-12T15:30:32.351Z,14.57
2022-10-12T15:32:59.073Z,13.48
2022-10-12T15:35:28.318Z,15.23
2022-10-12T15:37:58.366Z,14.45
2022-10-12T15:40:28.514Z,21.20
2022-10-12T15:42:55.967Z,16.27
2022-10-12T15:45:33.030Z,16.38
2022-10-12T15:48:00.167Z,19.98
2022-10-12T15:50:29.846Z,16.98
2022-10-12T15:52:57.359Z,15.85
2022-10-12T15:55:29.169Z,15.88
2022-10-12T15:57:57.268Z,15.68
2022-10-12T16:00:27.317Z,18.02
2022-10-12T16:02:55.916Z,16.73
2022-10-12T16:05:33.346Z,16.35
2022-10-12T16:08:01.074Z,16.77
2022-10-12T16:10:32.827Z,16.77
2022-10-12T16:12:59.899Z,15.90
2022-10-12T16:15:31.213Z,15.23
2022-10-12T16:18:03.016Z,15.52
2022-10-12T16:20:31.571Z,16.73
2022-10-12T16:22:59.317Z,17.30
2022-10-12T16:25:27.629Z,17.70
2022-10-12T16:27:57.095Z,15.48
2022-10-12T16:30:26.158Z,17.20
2022-10-12T16:32:53.259Z,15.15
2022-10-12T16:35:20.061Z,16.17
2022-10-12T16:37:47.297Z,14.68
2022-10-12T16:40:15.030Z,16.15
2022-10-12T16:42:43.131Z,19.00
2022-10-12T16:45:11.432Z,19.55
2022-10-12T16:47:41.968Z,17.80
2022-10-12T16:50:11.572Z,18.08
2022-10-12T16:52:38.636Z,16.45
2022-10-12T16:55:05.915Z,15.35
2022-10-12T16:57:32.674Z,15.32
2022-10-12T16:59:59.904Z,13.90
2022-10-12T17:02:29.354Z,14.10
2022-10-12T17:04:56.650Z,14.13
2022-10-12T17:07:23.486Z,13.45
2022-10-12T17:09:50.210Z,14.27
2022-10-12T17:12:17.758Z,14.60
2022-10-12T17:14:44.734Z,15.90
2022-10-12T17:17:11.804Z,15.18
2022-10-12T17:19:40.155Z,15.60
2022-10-12T17:22:09.230Z,13.45
2022-10-12T17:24:42.799Z,11.52
2022-10-12T17:27:12.926Z,11.43
2022-10-12T17:29:41.738Z,11.32
2022-10-12T17:32:12.944Z,12.18
2022-10-12T17:34:45.068Z,11.48
2022-10-12T17:37:14.670Z,11.27
2022-10-12T17:39:45.564Z,12.30
2022-10-12T17:42:14.230Z,11.88
2022-10-12T17:44:42.240Z,12.43
2022-10-12T17:47:08.957Z,13.07
2022-10-12T17:49:35.635Z,12.43
2022-10-12T17:52:02.783Z,12.55
2022-10-12T17:54:29.609Z,12.95
2022-10-12T17:56:57.160Z,12.20
2022-10-12T17:59:25.679Z,11.80
2022-10-12T18:01:53.071Z,12.20
2022-10-12T18:04:20.666Z,11.97
2022-10-12T18:06:47.607Z,11.90
2022-10-12T18:09:14.677Z,12.57
2022-10-12T18:11:42.351Z,10.93
2022-10-12T18:14:11.004Z,12.30
2022-10-12T18:16:38.172Z,11.73
2022-10-12T18:19:07.581Z,12.53
2022-10-12T18:21:34.447Z,11.65
2022-10-12T18:24:03.922Z,12.93
2022-10-12T18:26:31.081Z,12.47
2022-10-12T18:29:00.204Z,12.17
2022-10-12T18:31:28.901Z,11.97
2022-10-12T18:33:57.550Z,11.53
2022-10-12T18:36:26.098Z,11.73
2022-10-12T18:38:53.424Z,11.30
2022-10-12T18:41:23.061Z,11.57
2022-10-12T18:43:55.496Z,10.77
2022-10-12T18:46:23.003Z,10.30
2022-10-12T18:48:49.755Z,10.10
2022-10-12T18:51:21.084Z,10.33
2022-10-12T18:53:49.161Z,11.03
2022-10-12T18:56:16.486Z,10.73
2022-10-12T18:58:44.288Z,11.43
2022-10-12T19:01:17.673Z,10.30
2022-10-12T19:03:45.508Z,10.37
2022-10-12T19:06:16.397Z,10.17
2022-10-12T19:08:44.208Z,9.80
2022-10-12T19:11:13.188Z,11.40
2022-10-12T19:13:40.501Z,11.23
2022-10-12T19:16:13.416Z,11.00
2022-10-12T19:18:40.423Z,10.57
2022-10-12T19:21:15.918Z,10.23
2022-10-12T19:23:44.310Z,10.57
2022-10-12T19:26:14.782Z,10.17
2022-10-12T19:28:43.417Z,10.97
2022-10-12T19:31:16.792Z,10.47
2022-10-12T19:33:45.105Z,11.33
2022-10-12T19:36:14.577Z,10.27
2022-10-12T19:38:41.700Z,12.03
2022-10-12T19:41:09.339Z,10.10
2022-10-12T19:43:36.548Z,10.23
2022-10-12T19:46:09.190Z,10.03
2022-10-12T19:48:37.570Z,10.53
2022-10-12T19:51:07.747Z,10.93
2022-10-12T19:53:34.686Z,10.73
2022-10-12T19:56:06.641Z,9.60
2022-10-12T19:58:33.660Z,9.80
2022-10-12T20:01:09.690Z,9.63
2022-10-12T20:03:37.414Z,9.40
2022-10-12T20:06:07.864Z,10.20
2022-10-12T20:08:35.861Z,10.30
2022-10-12T20:11:02.714Z,9.53
2022-10-12T20:13:30.703Z,8.83
2022-10-12T20:18:35.977Z,9.20
2022-10-12T20:21:08.102Z,8.90
2022-10-12T20:23:36.359Z,9.07
2022-10-12T20:26:09.456Z,8.80
2022-10-12T20:28:37.188Z,8.37
2022-10-12T20:31:05.688Z,7.60
2022-10-12T20:33:34.440Z,7.67
2022-10-12T20:36:01.823Z,7.63
2022-10-12T20:38:29.438Z,8.13
2022-10-12T20:41:23.215Z,7.37
2022-10-12T20:43:54.417Z,8.77
2022-10-12T20:46:21.165Z,8.00
2022-10-12T20:48:47.926Z,8.90
2022-10-12T20:51:30.190Z,8.53
2022-10-12T20:54:01.471Z,9.50
2022-10-12T20:56:30.095Z,9.70
2022-10-12T20:58:57.648Z,10.53
2022-10-12T21:01:25.997Z,10.30
2022-10-12T21:03:56.202Z,11.87
2022-10-12T21:06:23.605Z,12.17
2022-10-12T21:08:55.679Z,11.67
2022-10-12T21:11:23.283Z,11.20
2022-10-12T21:13:50.702Z,10.17
2022-10-12T21:16:17.442Z,10.83
2022-10-12T21:18:44.262Z,11.33
2022-10-12T21:21:17.378Z,11.70
2022-10-12T21:23:51.854Z,12.03
2022-10-12T21:26:20.842Z,12.97
2022-10-12T21:28:47.973Z,12.60
2022-10-12T21:31:15.457Z,11.87
2022-10-12T21:33:42.978Z,12.37
2022-10-12T21:36:11.369Z,11.53
2022-10-12T21:38:39.395Z,11.57
2022-10-12T21:41:08.302Z,12.63
2022-10-12T21:43:36.019Z,12.57
2022-10-12T21:46:08.325Z,11.90
2022-10-12T21:48:35.404Z,11.73
2022-10-12T21:51:03.443Z,12.07
2022-10-12T21:53:30.801Z,12.97
2022-10-12T21:55:58.006Z,11.83
2022-10-12T21:58:24.940Z,12.67
2022-10-12T22:00:51.642Z,12.40
2022-10-12T22:03:18.398Z,12.20
2022-10-12T22:05:45.935Z,13.60
2022-10-12T22:08:12.965Z,12.27
2022-10-12T22:10:40.046Z,13.27
2022-10-12T22:13:07.512Z,12.83
2022-10-12T22:15:35.451Z,11.80
2022-10-12T22:18:11.839Z,12.53
2022-10-12T22:20:39.195Z,12.33
2022-10-12T22:23:05.923Z,12.03
2022-10-12T22:25:32.658Z,13.03
2022-10-12T22:28:00.008Z,13.03
2022-10-12T22:30:30.053Z,13.70
2022-10-12T22:32:56.774Z,13.23
2022-10-12T22:35:23.774Z,14.10
2022-10-12T22:37:51.153Z,13.30
2022-10-12T22:40:17.842Z,14.13
2022-10-12T22:42:45.149Z,13.43
2022-10-12T22:45:12.182Z,14.57
2022-10-12T22:47:38.894Z,14.10
2022-10-12T22:50:06.148Z,15.43
2022-10-12T22:52:33.694Z,15.23
2022-10-12T22:55:01.353Z,13.80
2022-10-12T22:57:30.309Z,15.70
2022-10-12T22:59:56.997Z,14.63
2022-10-12T23:02:23.960Z,14.33
2022-10-12T23:04:50.643Z,15.67
2022-10-12T23:07:17.428Z,15.77
2022-10-12T23:09:45.385Z,14.40
2022-10-12T23:12:12.071Z,14.70
2022-10-12T23:14:39.078Z,14.67
2022-10-12T23:17:05.736Z,13.83
2022-10-12T23:19:32.406Z,13.30
2022-10-12T23:22:01.731Z,14.30
2022-10-12T23:24:28.842Z,13.37
2022-10-12T23:26:57.474Z,12.93
2022-10-12T23:29:24.207Z,11.70
2022-10-12T23:31:50.870Z,11.90
2022-10-12T23:34:17.584Z,12.57
2022-10-12T23:36:45.707Z,12.20
2022-10-12T23:39:12.506Z,11.40
2022-10-12T23:41:39.308Z,10.73
2022-10-12T23:44:06.035Z,11.03
2022-10-12T23:46:32.948Z,11.30
2022-10-12T23:49:00.504Z,10.77
2022-10-12T23:51:27.871Z,10.23
2022-10-12T23:53:54.566Z,9.83
2022-10-12T23:56:21.282Z,9.10
2022-10-12T23:58:48.020Z,8.13
